Accueil
METAR-TAF:

METAR-TAF

Aéroports :

Uden, Pays-Bas

Base aérienne Volkel-Uden

latitude: 51-39N, longitude: 005-42E, altitude: 22 m

Observation

Le bulletin a été fait il y a 17 minutes, à 03:25 UTC
Vent 7 kt de ouest/sud-ouest
Température 13°C
Humidité 72%
Pression 1012 hPa
Visibilité 10 km ou plus
Nuages fragmentés à une hauteur de 6800 ft
Nuages fragmentés à une hauteur de 7500 ft
Ciel couvert à une hauteur de 26000 ft

METAR: EHVK 230325Z AUTO 25007KT 9999 BKN068 BKN075 OVC260 13/08 Q1012 BLU

Heure: 05:42 (03:42 UTC)


TAF: absent

Observations et prévisions météorologiques de plus de 4000 aéroports (messages METAR et TAF).

Les stations disponibles sont représentées par des disques jaunes et rouges sur la carte.

Passer la souris dessus pour voir le nom de la station.

Cliquer dessus pour voir les observations et prévisions météorologiques.

Pour changer de carte: cliquez sur les boutons verts avec une croix noire pour zoomer, sur le bouton vert avec un tiret pour effectuer un zoom arrière, ou sur les flèches vertes pour les cartes adjacentes.


METAR-TAF: